Time;durP1;ratioP1;P1;durP2;ratioP2;P2;SDS_P1;SDS_P2;PMS_P1;PMS_P2;Temp;Humidity;BMP_temperature;BMP_pressure;BME280_temperature;BME280_humidity;BME280_pressure;Samples;Min_cycle;Max_cycle;Signal;HPM_P1;HPM_P2
2021/05/13 00:00:28;;;;;;;17.98;9.43;;;;;;;;;;5008714;28;20033;-89
2021/05/13 00:02:53;;;;;;;17.45;10.18;;;;;;;;;;5010142;28;20018;-88
2021/05/13 00:05:19;;;;;;;14.87;9.90;;;;;;;;;;5017506;28;20403;-89
2021/05/13 00:07:44;;;;;;;15.90;9.77;;;;;;;;;;5008444;28;20026;-84
2021/05/13 00:10:11;;;;;;;15.35;9.35;;;;;;;;;;5017598;28;20053;-84
2021/05/13 00:15:05;;;;;;;10.23;7.20;;;;;;;;;;5009840;28;20369;-84
2021/05/13 00:17:31;;;;;;;10.70;6.60;;;;;;;;;;5040892;28;20029;-83
2021/05/13 00:19:56;;;;;;;10.40;6.10;;;;;;;;;;5020518;28;20434;-83
2021/05/13 00:22:24;;;;;;;11.63;6.57;;;;;;;;;;5026432;28;20017;-83
2021/05/13 00:24:49;;;;;;;11.13;6.13;;;;;;;;;;5012874;28;20029;-84
2021/05/13 00:27:15;;;;;;;8.53;6.20;;;;;;;;;;5025886;28;20018;-84
2021/05/13 00:29:40;;;;;;;10.77;5.63;;;;;;;;;;5019793;28;20054;-83
2021/05/13 00:32:05;;;;;;;9.60;6.27;;;;;;;;;;5020654;28;20026;-84
2021/05/13 00:34:30;;;;;;;12.03;6.13;;;;;;;;;;5014792;28;20047;-83
2021/05/13 00:36:55;;;;;;;11.13;6.87;;;;;;;;;;5028873;28;20028;-83
2021/05/13 00:39:21;;;;;;;9.00;6.13;;;;;;;;;;5015326;28;20075;-83
2021/05/13 00:41:46;;;;;;;9.53;6.33;;;;;;;;;;5026544;28;20426;-83
2021/05/13 00:44:11;;;;;;;10.37;6.97;;;;;;;;;;5011623;28;20033;-83
2021/05/13 00:46:36;;;;;;;10.73;7.30;;;;;;;;;;5018475;28;20109;-83
2021/05/13 00:49:15;;;;;;;9.10;6.67;;;;;;;;;;5026358;28;20375;-83
2021/05/13 00:51:40;;;;;;;11.13;6.17;;;;;;;;;;5021663;28;20018;-84
2021/05/13 00:54:05;;;;;;;8.43;5.83;;;;;;;;;;5020288;28;20029;-84
2021/05/13 00:56:31;;;;;;;9.07;5.83;;;;;;;;;;5018910;28;20022;-83
2021/05/13 00:58:59;;;;;;;7.13;5.23;;;;;;;;;;5026885;28;20068;-84
2021/05/13 01:01:26;;;;;;;9.97;5.57;;;;;;;;;;5026441;28;20108;-84
2021/05/13 01:03:51;;;;;;;6.73;4.90;;;;;;;;;;5018222;28;20018;-83
2021/05/13 01:06:16;;;;;;;7.83;5.37;;;;;;;;;;5019452;28;20033;-84
2021/05/13 01:08:42;;;;;;;8.50;6.03;;;;;;;;;;5010976;28;20071;-83
2021/05/13 01:11:10;;;;;;;8.53;5.97;;;;;;;;;;5041386;28;20063;-83
2021/05/13 01:13:48;;;;;;;11.03;5.43;;;;;;;;;;5012060;28;20093;-83
2021/05/13 01:16:25;;;;;;;8.40;5.63;;;;;;;;;;5012574;28;20168;-83
2021/05/13 01:18:50;;;;;;;9.03;6.07;;;;;;;;;;5012700;28;20022;-83
2021/05/13 01:21:15;;;;;;;10.60;6.03;;;;;;;;;;5011950;28;20026;-84
2021/05/13 01:23:42;;;;;;;9.83;6.40;;;;;;;;;;5015787;28;20102;-84
2021/05/13 01:26:07;;;;;;;15.67;6.60;;;;;;;;;;5019452;28;20125;-84
2021/05/13 01:28:32;;;;;;;14.10;7.67;;;;;;;;;;5013395;28;20451;-83
2021/05/13 01:30:57;;;;;;;11.20;7.03;;;;;;;;;;5013439;28;20303;-84
2021/05/13 01:33:24;;;;;;;9.73;6.27;;;;;;;;;;5029242;28;20477;-83
2021/05/13 01:35:50;;;;;;;11.17;6.93;;;;;;;;;;5015285;28;20022;-83
2021/05/13 01:38:16;;;;;;;8.07;6.00;;;;;;;;;;5012351;28;20083;-83
2021/05/13 01:40:49;;;;;;;8.80;6.60;;;;;;;;;;5024832;28;20018;-84
2021/05/13 01:43:14;;;;;;;9.07;7.07;;;;;;;;;;5018906;28;20033;-84
2021/05/13 01:45:40;;;;;;;10.80;7.07;;;;;;;;;;5023340;28;20457;-84
2021/05/13 01:48:06;;;;;;;11.63;8.60;;;;;;;;;;5023147;28;20053;-83
2021/05/13 01:50:32;;;;;;;15.17;10.40;;;;;;;;;;5014169;28;20488;-83
2021/05/13 01:52:58;;;;;;;17.73;11.47;;;;;;;;;;5021816;28;20022;-83
2021/05/13 01:55:23;;;;;;;19.03;13.33;;;;;;;;;;5019075;28;20465;-83
2021/05/13 01:57:49;;;;;;;22.25;14.23;;;;;;;;;;5020676;28;20021;-83
2021/05/13 02:00:14;;;;;;;26.13;15.27;;;;;;;;;;5010031;28;20078;-83
2021/05/13 02:02:39;;;;;;;24.60;14.30;;;;;;;;;;5028861;28;20022;-84
2021/05/13 02:05:05;;;;;;;25.30;14.50;;;;;;;;;;5021551;28;20026;-84
2021/05/13 02:07:30;;;;;;;23.23;12.33;;;;;;;;;;5019553;28;20030;-83
2021/05/13 02:09:55;;;;;;;17.93;10.90;;;;;;;;;;5013254;28;20120;-83
2021/05/13 02:12:21;;;;;;;14.67;9.07;;;;;;;;;;5020121;28;20458;-83
2021/05/13 02:14:46;;;;;;;13.57;8.77;;;;;;;;;;5009985;28;20025;-84
2021/05/13 02:17:11;;;;;;;14.57;8.90;;;;;;;;;;5019022;28;20033;-83
2021/05/13 02:19:36;;;;;;;17.92;9.05;;;;;;;;;;5013178;28;20044;-83
2021/05/13 02:22:01;;;;;;;15.25;9.00;;;;;;;;;;5016592;28;20109;-84
2021/05/13 02:24:27;;;;;;;15.10;9.40;;;;;;;;;;5017252;28;20026;-83
2021/05/13 02:26:52;;;;;;;16.95;9.73;;;;;;;;;;5010692;28;20022;-84
2021/05/13 02:29:17;;;;;;;15.80;9.70;;;;;;;;;;5008735;28;20071;-83
2021/05/13 02:31:43;;;;;;;20.77;10.18;;;;;;;;;;5021270;28;20032;-83
2021/05/13 02:34:08;;;;;;;18.92;11.07;;;;;;;;;;5025625;28;20030;-84
2021/05/13 02:36:33;;;;;;;16.10;10.02;;;;;;;;;;5024947;28;20501;-84
2021/05/13 02:38:58;;;;;;;14.53;9.30;;;;;;;;;;5015976;28;20060;-84
2021/05/13 02:41:23;;;;;;;15.15;9.60;;;;;;;;;;5011627;28;20116;-83
2021/05/13 02:43:49;;;;;;;13.38;9.10;;;;;;;;;;5013903;28;20163;-84
2021/05/13 02:46:14;;;;;;;15.13;9.65;;;;;;;;;;5013739;28;20032;-83
2021/05/13 02:48:39;;;;;;;15.97;9.07;;;;;;;;;;5010488;28;20024;-83
2021/05/13 02:51:04;;;;;;;15.43;10.05;;;;;;;;;;5023026;28;20018;-83
2021/05/13 02:53:29;;;;;;;16.60;9.55;;;;;;;;;;5019142;28;20381;-83
2021/05/13 02:55:55;;;;;;;17.83;9.60;;;;;;;;;;5020195;28;20188;-83
2021/05/13 02:58:20;;;;;;;14.13;9.93;;;;;;;;;;5019805;28;20025;-83
2021/05/13 03:00:53;;;;;;;14.85;9.48;;;;;;;;;;5018574;28;20113;-83
2021/05/13 03:03:18;;;;;;;18.05;11.20;;;;;;;;;;5013115;28;20461;-83
2021/05/13 03:05:43;;;;;;;15.57;10.38;;;;;;;;;;5014210;28;20108;-83
2021/05/13 03:08:10;;;;;;;18.50;10.55;;;;;;;;;;5015489;28;20083;-84
2021/05/13 03:13:08;;;;;;;15.13;10.13;;;;;;;;;;5003779;28;20060;-84
2021/05/13 03:15:33;;;;;;;15.83;10.67;;;;;;;;;;5009016;28;20423;-84
2021/05/13 03:17:59;;;;;;;15.03;10.57;;;;;;;;;;5012823;28;20222;-84
2021/05/13 03:20:32;;;;;;;14.90;10.13;;;;;;;;;;5014039;28;20076;-83
2021/05/13 03:22:58;;;;;;;17.87;11.07;;;;;;;;;;5013204;28;20113;-84
2021/05/13 03:25:30;;;;;;;15.90;11.60;;;;;;;;;;5018237;28;20021;-84
2021/05/13 03:28:10;;;;;;;18.05;10.93;;;;;;;;;;5018353;28;20037;-84
2021/05/13 03:30:40;;;;;;;17.47;11.90;;;;;;;;;;5016372;28;20071;-84
2021/05/13 03:33:05;;;;;;;22.83;13.63;;;;;;;;;;5017151;28;20017;-84
2021/05/13 03:35:30;;;;;;;19.53;12.13;;;;;;;;;;5008745;28;20018;-83
2021/05/13 03:37:56;;;;;;;16.73;11.03;;;;;;;;;;5009837;28;20021;-83
2021/05/13 03:40:21;;;;;;;17.97;10.97;;;;;;;;;;5012094;28;20158;-83
2021/05/13 03:42:46;;;;;;;17.00;10.73;;;;;;;;;;5022672;28;20034;-83
2021/05/13 03:45:11;;;;;;;15.90;10.03;;;;;;;;;;5008658;28;20095;-83
2021/05/13 03:47:37;;;;;;;14.60;9.43;;;;;;;;;;5015720;28;20103;-83
2021/05/13 03:50:02;;;;;;;15.03;10.07;;;;;;;;;;5017189;28;20022;-84
2021/05/13 03:52:28;;;;;;;15.23;10.03;;;;;;;;;;5008067;28;20022;-84
2021/05/13 03:54:53;;;;;;;19.17;11.37;;;;;;;;;;5021970;28;20014;-83
2021/05/13 03:57:18;;;;;;;21.63;12.00;;;;;;;;;;5017075;28;20022;-84
2021/05/13 03:59:43;;;;;;;16.83;11.03;;;;;;;;;;5015937;28;20030;-83
2021/05/13 04:04:52;;;;;;;20.47;11.73;;;;;;;;;;5015184;28;20032;-83
2021/05/13 04:07:18;;;;;;;15.30;10.93;;;;;;;;;;5011063;28;20026;-83
2021/05/13 04:09:43;;;;;;;15.20;10.37;;;;;;;;;;5009787;28;20057;-84
2021/05/13 04:12:08;;;;;;;17.17;11.23;;;;;;;;;;5015146;28;20046;-83
2021/05/13 04:14:34;;;;;;;17.50;11.37;;;;;;;;;;5021724;28;20078;-83
2021/05/13 04:17:01;;;;;;;16.93;11.43;;;;;;;;;;5022517;28;20022;-84
2021/05/13 04:19:26;;;;;;;21.40;12.17;;;;;;;;;;5019307;28;20069;-84
2021/05/13 04:21:51;;;;;;;20.13;13.23;;;;;;;;;;5016068;28;20049;-89
2021/05/13 04:24:19;;;;;;;22.63;13.10;;;;;;;;;;5019917;28;20088;-89
2021/05/13 04:26:45;;;;;;;20.90;12.97;;;;;;;;;;5012927;28;20022;-88
2021/05/13 04:29:10;;;;;;;24.03;12.90;;;;;;;;;;5019007;28;20082;-84
2021/05/13 04:31:36;;;;;;;18.70;13.33;;;;;;;;;;5015417;28;20018;-84
2021/05/13 04:34:02;;;;;;;23.23;13.67;;;;;;;;;;5012664;28;20106;-84
2021/05/13 04:36:27;;;;;;;20.93;13.10;;;;;;;;;;5016451;28;20047;-84
2021/05/13 04:38:52;;;;;;;21.10;12.47;;;;;;;;;;5008095;28;20026;-84
2021/05/13 04:41:18;;;;;;;21.43;12.77;;;;;;;;;;5015533;28;20095;-84
2021/05/13 04:43:43;;;;;;;19.95;12.82;;;;;;;;;;5007982;28;20029;-84
2021/05/13 04:46:08;;;;;;;23.77;12.77;;;;;;;;;;5007908;28;20438;-83
2021/05/13 04:48:53;;;;;;;18.63;13.03;;;;;;;;;;5007869;28;20024;-84
2021/05/13 04:51:19;;;;;;;22.70;12.77;;;;;;;;;;5009209;28;20025;-84
2021/05/13 04:53:48;;;;;;;20.92;13.40;;;;;;;;;;5023179;28;20333;-84
2021/05/13 04:56:14;;;;;;;24.42;14.18;;;;;;;;;;5010943;28;20393;-84
2021/05/13 04:58:39;;;;;;;23.58;14.52;;;;;;;;;;5013216;28;20018;-84
2021/05/13 05:01:04;;;;;;;21.90;14.43;;;;;;;;;;5020202;28;20096;-84
2021/05/13 05:03:29;;;;;;;30.33;16.80;;;;;;;;;;5022280;28;20066;-84
2021/05/13 05:05:55;;;;;;;23.70;15.53;;;;;;;;;;5011436;28;20055;-84
2021/05/13 05:08:20;;;;;;;31.73;16.00;;;;;;;;;;5017861;28;20071;-84
2021/05/13 05:10:46;;;;;;;24.23;14.77;;;;;;;;;;5025659;28;20021;-84
2021/05/13 05:13:11;;;;;;;25.50;15.55;;;;;;;;;;5015213;28;20117;-83
2021/05/13 05:15:36;;;;;;;23.45;15.48;;;;;;;;;;5026322;28;20124;-84
2021/05/13 05:18:01;;;;;;;24.10;15.15;;;;;;;;;;5025492;28;20053;-84
2021/05/13 05:20:26;;;;;;;25.88;15.45;;;;;;;;;;5020695;28;20032;-84
2021/05/13 05:22:52;;;;;;;24.92;15.38;;;;;;;;;;5014506;28;20021;-84
2021/05/13 05:25:17;;;;;;;25.38;14.50;;;;;;;;;;5020155;28;20064;-84
2021/05/13 05:27:42;;;;;;;23.02;15.18;;;;;;;;;;5018460;28;20022;-84
2021/05/13 05:30:08;;;;;;;22.83;15.40;;;;;;;;;;5018110;28;20036;-84
2021/05/13 05:32:33;;;;;;;29.67;14.60;;;;;;;;;;5010840;28;20135;-84
2021/05/13 05:35:03;;;;;;;24.60;15.00;;;;;;;;;;5017572;28;20025;-84
2021/05/13 05:37:29;;;;;;;25.13;14.27;;;;;;;;;;5016239;28;20096;-83
2021/05/13 05:39:54;;;;;;;23.42;14.05;;;;;;;;;;5010617;28;20022;-83
2021/05/13 05:42:20;;;;;;;27.38;14.07;;;;;;;;;;5014511;28;20314;-84
2021/05/13 05:44:45;;;;;;;24.67;15.77;;;;;;;;;;5015233;28;20034;-84
2021/05/13 05:47:12;;;;;;;24.50;14.60;;;;;;;;;;5021825;28;20061;-84
2021/05/13 05:49:37;;;;;;;20.02;14.05;;;;;;;;;;5012568;28;20096;-84
2021/05/13 05:52:03;;;;;;;25.23;14.70;;;;;;;;;;5014758;28;20163;-84
2021/05/13 05:54:28;;;;;;;26.23;14.98;;;;;;;;;;5021009;28;20372;-84
2021/05/13 05:56:53;;;;;;;27.60;14.77;;;;;;;;;;5026417;28;20120;-84
2021/05/13 05:59:18;;;;;;;28.77;13.85;;;;;;;;;;5017786;28;20416;-84
2021/05/13 06:01:43;;;;;;;21.73;14.40;;;;;;;;;;5025932;28;20108;-84
2021/05/13 06:04:09;;;;;;;22.15;13.93;;;;;;;;;;5018693;28;20045;-84
2021/05/13 06:06:34;;;;;;;27.13;14.00;;;;;;;;;;5017589;28;20026;-84
2021/05/13 06:08:59;;;;;;;20.35;13.57;;;;;;;;;;5013642;28;20376;-84
2021/05/13 06:11:24;;;;;;;20.30;13.60;;;;;;;;;;5010535;28;20091;-83
2021/05/13 06:13:50;;;;;;;24.38;13.57;;;;;;;;;;5030254;28;20441;-83
2021/05/13 06:16:15;;;;;;;27.70;13.60;;;;;;;;;;5018407;28;20049;-83
2021/05/13 06:18:49;;;;;;;21.10;13.45;;;;;;;;;;5012068;28;20057;-83
2021/05/13 06:21:14;;;;;;;23.30;12.43;;;;;;;;;;5020208;28;20014;-82
2021/05/13 06:23:40;;;;;;;23.35;12.45;;;;;;;;;;5045412;28;20051;-83
2021/05/13 06:26:05;;;;;;;23.25;11.73;;;;;;;;;;5017920;28;20063;-82
2021/05/13 06:28:30;;;;;;;24.88;12.52;;;;;;;;;;5050891;28;20033;-82
2021/05/13 06:30:55;;;;;;;17.30;10.43;;;;;;;;;;5047783;28;20026;-82
2021/05/13 06:33:20;;;;;;;21.98;11.40;;;;;;;;;;5014605;28;20492;-83
2021/05/13 06:35:46;;;;;;;24.73;11.73;;;;;;;;;;5022150;28;20053;-82
2021/05/13 06:38:11;;;;;;;21.33;11.10;;;;;;;;;;5016027;28;20461;-83
2021/05/13 06:40:36;;;;;;;19.35;11.07;;;;;;;;;;5013873;28;20029;-84
2021/05/13 06:43:01;;;;;;;20.08;10.15;;;;;;;;;;5016566;28;20025;-84
2021/05/13 06:45:27;;;;;;;20.85;11.18;;;;;;;;;;5047989;28;20099;-85
2021/05/13 06:47:52;;;;;;;20.38;10.13;;;;;;;;;;5017401;28;20022;-84
2021/05/13 06:50:19;;;;;;;20.08;11.02;;;;;;;;;;5016471;28;20056;-84
2021/05/13 06:52:44;;;;;;;25.20;10.70;;;;;;;;;;5019428;28;20508;-83
2021/05/13 06:55:09;;;;;;;19.52;9.77;;;;;;;;;;5040742;28;20159;-84
2021/05/13 06:57:35;;;;;;;17.23;9.93;;;;;;;;;;5017322;28;20018;-84
2021/05/13 07:00:00;;;;;;;16.55;8.02;;;;;;;;;;5048142;28;20027;-85
2021/05/13 07:02:25;;;;;;;19.13;9.68;;;;;;;;;;5010135;28;20032;-85
2021/05/13 07:04:52;;;;;;;18.15;8.70;;;;;;;;;;5011000;28;20037;-84
2021/05/13 07:07:18;;;;;;;19.20;8.88;;;;;;;;;;5022002;28;20034;-85
2021/05/13 07:09:44;;;;;;;19.92;10.27;;;;;;;;;;5011324;28;20022;-84
2021/05/13 07:12:09;;;;;;;24.42;9.93;;;;;;;;;;5009157;28;20073;-84
2021/05/13 07:14:34;;;;;;;22.80;9.25;;;;;;;;;;5028732;28;20020;-84
2021/05/13 07:17:00;;;;;;;16.85;7.40;;;;;;;;;;5022934;28;20050;-85
2021/05/13 07:19:25;;;;;;;18.05;7.18;;;;;;;;;;5025551;28;20022;-84
2021/05/13 07:21:50;;;;;;;15.70;7.03;;;;;;;;;;5019719;28;20018;-85
2021/05/13 07:24:15;;;;;;;14.80;5.97;;;;;;;;;;5018754;28;20515;-84
2021/05/13 07:26:41;;;;;;;13.63;6.57;;;;;;;;;;5013582;28;20049;-84
2021/05/13 07:29:06;;;;;;;15.07;6.40;;;;;;;;;;5013103;28;20030;-84
2021/05/13 07:31:31;;;;;;;16.85;7.25;;;;;;;;;;5015861;28;20086;-85
2021/05/13 07:33:56;;;;;;;15.35;6.68;;;;;;;;;;5014293;28;20026;-84
2021/05/13 07:36:22;;;;;;;15.95;7.28;;;;;;;;;;5030328;28;20051;-83
2021/05/13 07:38:47;;;;;;;15.93;6.40;;;;;;;;;;5009652;28;20018;-84
2021/05/13 07:41:14;;;;;;;14.88;5.88;;;;;;;;;;5014876;28;20389;-83
2021/05/13 07:43:39;;;;;;;11.63;4.72;;;;;;;;;;5020442;28;20025;-84
2021/05/13 07:46:06;;;;;;;13.57;4.35;;;;;;;;;;5012223;28;20025;-83
2021/05/13 07:48:31;;;;;;;20.35;6.68;;;;;;;;;;5012787;28;20036;-83
2021/05/13 07:50:56;;;;;;;14.25;4.80;;;;;;;;;;5014941;28;20068;-84
2021/05/13 07:53:22;;;;;;;9.88;4.90;;;;;;;;;;5022432;28;20531;-83
2021/05/13 07:55:47;;;;;;;16.00;5.15;;;;;;;;;;5014635;28;20017;-84
2021/05/13 07:58:13;;;;;;;13.07;4.75;;;;;;;;;;5049518;28;20356;-84
2021/05/13 08:00:39;;;;;;;14.00;4.53;;;;;;;;;;5008659;28;20114;-83
2021/05/13 08:03:05;;;;;;;12.27;5.35;;;;;;;;;;5017143;28;20037;-84
2021/05/13 08:05:30;;;;;;;14.85;5.40;;;;;;;;;;5015618;28;20090;-84
2021/05/13 08:07:55;;;;;;;8.90;4.57;;;;;;;;;;5012535;28;20529;-83
2021/05/13 08:10:20;;;;;;;13.20;4.05;;;;;;;;;;5009062;28;20517;-83
2021/05/13 08:12:45;;;;;;;12.95;4.82;;;;;;;;;;5010434;28;20018;-83
2021/05/13 08:15:12;;;;;;;10.07;4.22;;;;;;;;;;5014276;28;20021;-84
2021/05/13 08:17:41;;;;;;;10.20;4.00;;;;;;;;;;5014530;28;20101;-85
2021/05/13 08:20:07;;;;;;;7.43;2.95;;;;;;;;;;5023880;28;20067;-84
2021/05/13 08:22:33;;;;;;;7.80;3.30;;;;;;;;;;5047163;28;20061;-85
2021/05/13 08:24:59;;;;;;;8.40;3.20;;;;;;;;;;5012625;28;20033;-84
2021/05/13 08:27:24;;;;;;;8.50;3.47;;;;;;;;;;5012971;28;20369;-85
2021/05/13 08:29:49;;;;;;;11.82;4.15;;;;;;;;;;5008679;28;20025;-85
2021/05/13 08:32:15;;;;;;;10.70;4.13;;;;;;;;;;5019650;28;20517;-86
2021/05/13 08:34:40;;;;;;;9.65;3.55;;;;;;;;;;5016432;28;20025;-85
2021/05/13 08:37:05;;;;;;;7.63;3.95;;;;;;;;;;5016424;28;20423;-85
2021/05/13 08:39:30;;;;;;;9.23;3.72;;;;;;;;;;5010760;28;20018;-85
2021/05/13 08:41:56;;;;;;;9.15;3.42;;;;;;;;;;5016786;28;20477;-84
2021/05/13 08:44:21;;;;;;;8.18;3.70;;;;;;;;;;5017054;28;20029;-85
2021/05/13 08:46:47;;;;;;;9.18;3.55;;;;;;;;;;5027889;28;20026;-85
2021/05/13 08:49:12;;;;;;;12.55;3.67;;;;;;;;;;5021320;28;20061;-85
2021/05/13 08:51:38;;;;;;;9.80;3.42;;;;;;;;;;5010598;28;20029;-85
2021/05/13 08:54:04;;;;;;;11.73;3.67;;;;;;;;;;5017386;28;20460;-85
2021/05/13 08:56:30;;;;;;;9.02;3.72;;;;;;;;;;5020525;28;20030;-85
2021/05/13 08:58:58;;;;;;;11.63;3.10;;;;;;;;;;5023459;28;20070;-85
2021/05/13 09:01:24;;;;;;;14.73;2.45;;;;;;;;;;5028022;28;20101;-85
2021/05/13 09:03:50;;;;;;;6.55;1.67;;;;;;;;;;5022099;28;20108;-85
2021/05/13 09:06:28;;;;;;;6.47;1.63;;;;;;;;;;5014571;28;20515;-85
2021/05/13 09:09:07;;;;;;;5.97;1.50;;;;;;;;;;5011229;28;20024;-85
2021/05/13 09:11:32;;;;;;;8.00;1.95;;;;;;;;;;5012970;28;20022;-85
2021/05/13 09:13:59;;;;;;;9.15;2.25;;;;;;;;;;5020101;28;20066;-85
2021/05/13 09:16:25;;;;;;;6.72;2.00;;;;;;;;;;5017083;28;20105;-85
2021/05/13 09:18:50;;;;;;;5.32;1.83;;;;;;;;;;5024011;28;20598;-85
2021/05/13 09:21:15;;;;;;;11.25;1.98;;;;;;;;;;5019945;28;20072;-85
2021/05/13 09:23:41;;;;;;;5.35;1.48;;;;;;;;;;5012952;28;20430;-85
2021/05/13 09:26:07;;;;;;;12.05;2.33;;;;;;;;;;5018393;28;20038;-84
2021/05/13 09:28:33;;;;;;;8.48;2.42;;;;;;;;;;5010191;28;20123;-85
2021/05/13 09:30:58;;;;;;;10.55;2.55;;;;;;;;;;5017606;28;20050;-85
2021/05/13 09:33:30;;;;;;;7.80;2.13;;;;;;;;;;5010380;28;20018;-85
2021/05/13 09:35:56;;;;;;;6.38;1.73;;;;;;;;;;5021646;28;20022;-85
2021/05/13 09:38:31;;;;;;;10.45;2.20;;;;;;;;;;5011517;28;20030;-85
2021/05/13 09:40:57;;;;;;;8.75;2.05;;;;;;;;;;5011137;28;20071;-86
2021/05/13 09:43:23;;;;;;;5.43;1.83;;;;;;;;;;5017562;28;20026;-85
2021/05/13 09:45:50;;;;;;;9.80;2.75;;;;;;;;;;5012422;28;20469;-84
2021/05/13 09:48:34;;;;;;;10.25;1.92;;;;;;;;;;5011048;28;20029;-85
2021/05/13 09:51:18;;;;;;;8.63;2.10;;;;;;;;;;5019586;28;20041;-85
2021/05/13 09:53:43;;;;;;;7.22;2.00;;;;;;;;;;5017307;28;20388;-86
2021/05/13 09:56:24;;;;;;;6.65;2.00;;;;;;;;;;5019079;28;20029;-85
2021/05/13 09:58:49;;;;;;;9.07;1.90;;;;;;;;;;5017483;28;20028;-85
2021/05/13 10:01:15;;;;;;;6.90;2.15;;;;;;;;;;5020653;28;20361;-85
2021/05/13 10:03:40;;;;;;;5.97;1.88;;;;;;;;;;5010027;28;20461;-85
2021/05/13 10:06:10;;;;;;;6.50;1.85;;;;;;;;;;5027413;28;20476;-85
2021/05/13 10:08:35;;;;;;;12.43;1.70;;;;;;;;;;5009801;28;20048;-85
2021/05/13 10:11:00;;;;;;;8.65;1.92;;;;;;;;;;5020129;28;20053;-85
2021/05/13 10:13:29;;;;;;;11.60;2.08;;;;;;;;;;5019532;28;20021;-85
2021/05/13 10:15:54;;;;;;;9.00;1.90;;;;;;;;;;5025640;28;20045;-85
2021/05/13 10:18:19;;;;;;;9.40;1.80;;;;;;;;;;5018452;28;20088;-85
2021/05/13 10:20:49;;;;;;;4.80;1.52;;;;;;;;;;5024624;28;20021;-85
2021/05/13 10:23:14;;;;;;;6.60;1.52;;;;;;;;;;5017423;28;20476;-85
2021/05/13 10:25:40;;;;;;;6.35;1.55;;;;;;;;;;5017781;28;20021;-85
2021/05/13 10:28:05;;;;;;;5.10;1.30;;;;;;;;;;5022824;28;20033;-85
2021/05/13 10:30:32;;;;;;;5.28;1.33;;;;;;;;;;5017992;28;20052;-85
2021/05/13 10:33:16;;;;;;;4.90;1.35;;;;;;;;;;5019059;28;20125;-85
2021/05/13 10:36:00;;;;;;;7.38;1.42;;;;;;;;;;5019483;28;20108;-85
2021/05/13 10:38:36;;;;;;;8.32;1.50;;;;;;;;;;5010615;28;20117;-85
2021/05/13 10:41:21;;;;;;;7.38;1.70;;;;;;;;;;5017059;28;20117;-85
2021/05/13 10:43:46;;;;;;;5.60;1.50;;;;;;;;;;5019985;28;20057;-85
2021/05/13 10:46:25;;;;;;;8.38;1.63;;;;;;;;;;5010177;28;20503;-85
2021/05/13 10:48:50;;;;;;;6.40;1.40;;;;;;;;;;5015619;28;20075;-85
2021/05/13 10:51:24;;;;;;;10.55;1.55;;;;;;;;;;5020051;28;20021;-85
2021/05/13 10:53:50;;;;;;;4.22;1.30;;;;;;;;;;5025580;28;20099;-86
2021/05/13 10:56:24;;;;;;;7.72;1.55;;;;;;;;;;5027608;28;20052;-85
2021/05/13 10:58:59;;;;;;;3.75;1.17;;;;;;;;;;5028460;28;20133;-85
2021/05/13 11:01:45;;;;;;;5.80;1.42;;;;;;;;;;5007716;28;20021;-85
2021/05/13 11:04:20;;;;;;;4.60;1.10;;;;;;;;;;5015870;28;20022;-86
2021/05/13 11:06:45;;;;;;;8.10;1.27;;;;;;;;;;5026008;28;20052;-85
2021/05/13 11:09:29;;;;;;;9.95;1.23;;;;;;;;;;5019962;28;20109;-86
2021/05/13 11:12:11;;;;;;;8.77;1.38;;;;;;;;;;5008837;28;20022;-85
2021/05/13 11:17:46;;;;;;;8.38;1.40;;;;;;;;;;5011757;28;20086;-86
2021/05/13 11:20:41;;;;;;;5.28;1.50;;;;;;;;;;5011933;28;20335;-86
2021/05/13 11:23:14;;;;;;;10.10;1.55;;;;;;;;;;5015752;28;20089;-85
2021/05/13 11:25:44;;;;;;;7.97;2.10;;;;;;;;;;5000583;28;20063;-85
2021/05/13 11:28:15;;;;;;;8.32;1.40;;;;;;;;;;5016182;28;20128;-85
2021/05/13 11:30:40;;;;;;;8.38;1.30;;;;;;;;;;5011522;28;20473;-85
2021/05/13 11:33:07;;;;;;;3.17;1.08;;;;;;;;;;5017759;28;20081;-85
2021/05/13 11:35:33;;;;;;;2.95;1.10;;;;;;;;;;5018843;28;20022;-85
2021/05/13 11:37:59;;;;;;;5.45;1.25;;;;;;;;;;5015574;28;20025;-85
2021/05/13 11:40:28;;;;;;;5.60;1.17;;;;;;;;;;5036031;28;20029;-85
2021/05/13 11:43:12;;;;;;;5.60;1.25;;;;;;;;;;5021914;28;20388;-86
2021/05/13 11:45:38;;;;;;;3.97;1.00;;;;;;;;;;5014200;28;20022;-85
2021/05/13 11:48:16;;;;;;;3.58;0.88;;;;;;;;;;5009899;28;20457;-85
2021/05/13 11:50:43;;;;;;;5.82;1.00;;;;;;;;;;5028189;28;20030;-85
2021/05/13 11:53:15;;;;;;;4.60;0.82;;;;;;;;;;5024921;28;20022;-85
2021/05/13 11:55:41;;;;;;;6.80;1.10;;;;;;;;;;5013789;28;20422;-85
2021/05/13 11:58:07;;;;;;;6.25;1.45;;;;;;;;;;5010047;28;20030;-85
2021/05/13 12:00:32;;;;;;;3.22;0.98;;;;;;;;;;5024277;28;20028;-85
2021/05/13 12:03:07;;;;;;;4.22;0.93;;;;;;;;;;5021056;28;20018;-85
2021/05/13 12:05:43;;;;;;;3.00;1.13;;;;;;;;;;5100137;28;20026;-85
2021/05/13 12:08:08;;;;;;;7.18;0.80;;;;;;;;;;5015140;28;20030;-85
2021/05/13 12:10:34;;;;;;;2.90;0.57;;;;;;;;;;5011757;28;20446;-85
2021/05/13 12:13:02;;;;;;;5.30;0.73;;;;;;;;;;5025509;28;20424;-85
2021/05/13 12:15:27;;;;;;;4.80;0.93;;;;;;;;;;5015686;28;20022;-84
2021/05/13 12:17:53;;;;;;;4.32;0.80;;;;;;;;;;5018543;28;20045;-84
2021/05/13 12:20:18;;;;;;;7.57;0.68;;;;;;;;;;5033829;28;20350;-85
2021/05/13 12:22:44;;;;;;;3.53;0.77;;;;;;;;;;5017271;28;20462;-85
2021/05/13 12:25:09;;;;;;;3.63;0.85;;;;;;;;;;5014270;28;20025;-85
2021/05/13 12:27:35;;;;;;;8.45;1.23;;;;;;;;;;5028479;28;20117;-84
2021/05/13 12:30:00;;;;;;;4.00;1.17;;;;;;;;;;5025307;28;20033;-85
2021/05/13 12:32:28;;;;;;;10.63;1.10;;;;;;;;;;5013619;28;20018;-85
2021/05/13 12:34:53;;;;;;;4.75;1.20;;;;;;;;;;5037191;28;20021;-85
2021/05/13 12:37:20;;;;;;;8.73;1.15;;;;;;;;;;5026147;28;20390;-84
2021/05/13 12:39:45;;;;;;;6.03;1.27;;;;;;;;;;5020101;28;20025;-84
2021/05/13 12:42:23;;;;;;;6.65;1.27;;;;;;;;;;5018353;28;20018;-85
2021/05/13 12:44:48;;;;;;;3.28;1.13;;;;;;;;;;5011618;28;20037;-84
2021/05/13 12:47:13;;;;;;;8.25;1.05;;;;;;;;;;5012262;28;20022;-84
2021/05/13 12:49:39;;;;;;;6.70;1.65;;;;;;;;;;5038252;28;20018;-85
2021/05/13 12:52:05;;;;;;;5.15;1.20;;;;;;;;;;5037653;28;20060;-84
2021/05/13 12:54:31;;;;;;;13.90;1.50;;;;;;;;;;5011992;28;20025;-84
2021/05/13 12:57:16;;;;;;;5.40;1.20;;;;;;;;;;5019901;28;20026;-84
2021/05/13 12:59:42;;;;;;;7.43;0.68;;;;;;;;;;5021592;28;20444;-84
2021/05/13 13:02:08;;;;;;;12.35;3.00;;;;;;;;;;5019459;28;20317;-84
2021/05/13 13:04:46;;;;;;;15.82;3.08;;;;;;;;;;5030889;28;20059;-84
2021/05/13 13:07:15;;;;;;;19.15;3.40;;;;;;;;;;5024781;28;20022;-85
2021/05/13 13:09:40;;;;;;;9.85;2.70;;;;;;;;;;5040690;28;20040;-84
2021/05/13 13:12:08;;;;;;;11.63;1.75;;;;;;;;;;5010786;28;20044;-84
2021/05/13 13:17:02;;;;;;;17.55;1.73;;;;;;;;;;5011734;28;20468;-84
2021/05/13 13:19:27;;;;;;;5.25;2.90;;;;;;;;;;5020811;28;20018;-84
2021/05/13 13:22:02;;;;;;;13.50;2.13;;;;;;;;;;5017120;28;20022;-84
2021/05/13 13:24:28;;;;;;;39.42;3.78;;;;;;;;;;5014378;28;20095;-85
2021/05/13 13:27:01;;;;;;;61.58;4.63;;;;;;;;;;5019215;28;20045;-84
2021/05/13 13:29:29;;;;;;;23.08;4.10;;;;;;;;;;5012603;28;20036;-84
2021/05/13 13:32:03;;;;;;;32.17;4.30;;;;;;;;;;5045711;28;20032;-85
2021/05/13 13:34:39;;;;;;;1.63;0.98;;;;;;;;;;5025644;28;20016;-84
2021/05/13 13:37:04;;;;;;;17.35;2.80;;;;;;;;;;5009006;28;20362;-84
2021/05/13 13:39:29;;;;;;;7.00;2.53;;;;;;;;;;5011032;28;20028;-84
2021/05/13 13:41:55;;;;;;;17.90;3.08;;;;;;;;;;5017496;28;20033;-84
2021/05/13 13:44:20;;;;;;;21.92;3.00;;;;;;;;;;5011771;28;20085;-84
2021/05/13 13:46:45;;;;;;;15.98;2.55;;;;;;;;;;5016437;28;20117;-84
2021/05/13 13:49:10;;;;;;;5.55;2.28;;;;;;;;;;5022478;28;20018;-85
2021/05/13 13:51:35;;;;;;;6.07;1.80;;;;;;;;;;5014572;28;20021;-84
2021/05/13 13:54:01;;;;;;;4.80;1.20;;;;;;;;;;5043565;28;20520;-84
2021/05/13 13:56:26;;;;;;;2.20;1.05;;;;;;;;;;5008648;28;20032;-84
2021/05/13 13:58:51;;;;;;;6.07;1.40;;;;;;;;;;5022000;28;20029;-84
2021/05/13 14:01:16;;;;;;;3.13;1.25;;;;;;;;;;5017668;28;20029;-84
2021/05/13 14:03:41;;;;;;;1.88;0.88;;;;;;;;;;5015653;28;20022;-84
2021/05/13 14:06:06;;;;;;;5.43;1.20;;;;;;;;;;5021904;28;20033;-84
2021/05/13 14:08:32;;;;;;;1.58;0.90;;;;;;;;;;5033604;28;20048;-84
2021/05/13 14:10:57;;;;;;;7.30;2.72;;;;;;;;;;5014534;28;20022;-84
2021/05/13 14:13:22;;;;;;;2.22;1.00;;;;;;;;;;5018777;28;20021;-84
2021/05/13 14:15:50;;;;;;;1.85;0.90;;;;;;;;;;5010048;28;20022;-84
2021/05/13 14:18:15;;;;;;;5.57;1.35;;;;;;;;;;5012961;28;20036;-83
2021/05/13 14:20:40;;;;;;;5.03;1.40;;;;;;;;;;5018504;28;20025;-83
2021/05/13 14:23:05;;;;;;;3.00;1.20;;;;;;;;;;5039207;28;20023;-83
2021/05/13 14:25:31;;;;;;;3.30;1.45;;;;;;;;;;5016289;28;20500;-83
2021/05/13 14:27:57;;;;;;;4.93;1.50;;;;;;;;;;5026694;28;20026;-84
2021/05/13 14:30:22;;;;;;;4.38;1.52;;;;;;;;;;5025782;28;20028;-84
2021/05/13 14:32:47;;;;;;;7.25;1.80;;;;;;;;;;5044965;28;20034;-84
2021/05/13 14:35:20;;;;;;;4.88;2.00;;;;;;;;;;5030352;28;20101;-83
2021/05/13 14:37:47;;;;;;;3.88;1.30;;;;;;;;;;5042459;28;20041;-83
2021/05/13 14:40:13;;;;;;;4.63;1.65;;;;;;;;;;5018955;28;20395;-84
2021/05/13 14:42:38;;;;;;;3.88;1.60;;;;;;;;;;5007365;28;20042;-83